首页
METAR-TAF:

METAR-TAF

机场 :

胡安·圣玛丽亚国际机场

聖荷西, 哥斯達黎加

纬度: 10-00N, 经度: 084-13W, 海拔: 920米

当前天气观测

该预报发布于49分钟前的01:00 UTC
风速1节,风向多变
温度 23°C
湿度 94%
气压 1018 hPa
能见度10公里或以上
散云层高于3000英尺
多云层高于10000英尺

METAR: MROC 250100Z VRB01KT 9999 SCT030 BKN100 23/22 A3006 NOSIG

时间: 19:49 (01:49 UTC)

预报

该预报发布于2小时和32分钟前的23:17 UTC
预报有效从25日的 00点(UTC)到 25日的 24点(UTC)
风速7节,风向西转西南
能见度10公里或以上
少量云层高于3500英尺
短暂存在
从 25日的 00点(UTC)到 25日的 06点(UTC)
能見度: 5000
多云层高于1000英尺
轻雾
成为
从 25日的 07点(UTC)到 25日的 09点(UTC)
风速6节,风向
成为
从 25日的 15点(UTC)到 25日的 17点(UTC)
风速8节,风向西转西南
短暂存在
从 25日的 20点(UTC)到 25日的 24点(UTC)
散云层高于1500英尺, 积雨云.
雷暴, 雨,

TAF: MROC 242317Z 2500/2524 24007KT 9999 FEW035 TX29/2519Z TN20/2511Z TEMPO 2500/2506 5000 BR BKN010 BECMG 2507/2509 09006KT BECMG 2515/2517 25008KT TEMPO 2520/2524 TSRA SCT015CB

超过4000个机场的气象观测和天气预报(METAR&TAF报告)。

可查询的气象台以黄色和红色小点在地图上表示。

将鼠标移到小点上方,可查看气象台名称。

然后点击查看天气观测和预报。

如需切换地图:点击带黑十字的绿色按钮放大地图;点击带横线的绿色按钮缩小地图;或者点击绿色箭头查看邻近地区的地图。


METAR-TAF: